createdAt,value
2022-08-14T00:00:59.212Z,46.11
2022-08-14T00:01:59.327Z,45.81
2022-08-14T00:02:59.196Z,45.81
2022-08-14T00:03:59.144Z,45.89
2022-08-14T00:04:59.172Z,45.99
2022-08-14T00:05:59.122Z,46.39
2022-08-14T00:06:59.101Z,46.11
2022-08-14T00:07:59.099Z,46.51
2022-08-14T00:08:59.579Z,46.81
2022-08-14T00:10:49.712Z,47.02
2022-08-14T00:10:59.055Z,47.02
2022-08-14T00:11:59.037Z,47.02
2022-08-14T00:12:59.148Z,47.12
2022-08-14T00:13:59.003Z,47.54
2022-08-14T00:14:59.031Z,47.74
2022-08-14T00:15:58.984Z,47.94
2022-08-14T00:16:58.978Z,47.97
2022-08-14T00:17:58.999Z,48.27
2022-08-14T00:19:06.618Z,48.67
2022-08-14T00:19:58.945Z,49.30
2022-08-14T00:20:58.952Z,49.82
2022-08-14T00:21:58.910Z,50.43
2022-08-14T00:22:58.936Z,50.65
2022-08-14T00:24:01.524Z,50.76
2022-08-14T00:24:58.866Z,50.56
2022-08-14T00:26:06.703Z,50.65
2022-08-14T00:27:02.010Z,50.33
2022-08-14T00:27:58.817Z,49.73
2022-08-14T00:28:58.813Z,49.10
2022-08-14T00:29:58.797Z,48.79
2022-08-14T00:30:58.793Z,48.47
2022-08-14T00:31:58.896Z,48.27
2022-08-14T00:32:58.836Z,47.86
2022-08-14T00:33:58.906Z,47.64
2022-08-14T00:34:58.748Z,47.54
2022-08-14T00:36:46.989Z,47.24
2022-08-14T00:36:59.345Z,47.14
2022-08-14T00:37:58.744Z,47.14
2022-08-14T00:38:58.710Z,47.44
2022-08-14T00:39:58.709Z,47.64
2022-08-14T00:40:58.648Z,47.64
2022-08-14T00:41:58.647Z,48.07
2022-08-14T00:42:58.612Z,48.47
2022-08-14T00:43:58.647Z,48.77
2022-08-14T00:44:58.655Z,48.99
2022-08-14T00:45:58.587Z,49.40
2022-08-14T00:46:58.902Z,49.70
2022-08-14T00:48:00.081Z,50.51
2022-08-14T00:48:58.565Z,51.03
2022-08-14T00:49:58.541Z,51.43
2022-08-14T00:50:58.539Z,51.84
2022-08-14T00:52:54.129Z,52.57
2022-08-14T00:53:55.124Z,53.00
2022-08-14T00:54:57.943Z,53.40
2022-08-14T00:55:55.101Z,53.92
2022-08-14T00:56:56.095Z,54.33
2022-08-14T00:57:55.064Z,54.43
2022-08-14T00:58:55.092Z,54.96
2022-08-14T00:59:55.033Z,55.46
2022-08-14T01:00:57.838Z,55.66
2022-08-14T01:01:55.138Z,55.79
2022-08-14T01:02:55.062Z,56.20
2022-08-14T01:03:54.981Z,56.10
2022-08-14T01:04:55.136Z,55.69
2022-08-14T01:05:55.897Z,55.49
2022-08-14T01:06:55.260Z,55.19
2022-08-14T01:07:57.105Z,54.89
2022-08-14T01:08:58.062Z,54.99
2022-08-14T01:09:54.903Z,55.29
2022-08-14T01:10:54.903Z,55.39
2022-08-14T01:12:02.744Z,54.79
2022-08-14T01:12:54.882Z,54.89
2022-08-14T01:13:56.197Z,55.09
2022-08-14T01:14:54.896Z,54.89
2022-08-14T01:16:01.244Z,54.79
2022-08-14T01:16:55.402Z,54.48
2022-08-14T01:17:54.815Z,54.58
2022-08-14T01:19:01.449Z,54.48
2022-08-14T01:19:54.779Z,54.48
2022-08-14T01:20:54.889Z,54.38
2022-08-14T01:21:54.743Z,53.65
2022-08-14T01:22:54.744Z,53.02
2022-08-14T01:23:54.723Z,52.42
2022-08-14T01:24:54.722Z,51.79
2022-08-14T01:25:54.698Z,51.68
2022-08-14T01:26:54.728Z,51.59
2022-08-14T01:27:57.906Z,51.56
2022-08-14T01:28:56.878Z,50.96
2022-08-14T01:30:03.186Z,50.63
2022-08-14T01:30:54.652Z,50.43
2022-08-14T01:31:54.623Z,50.23
2022-08-14T01:32:54.650Z,50.13
2022-08-14T01:33:59.627Z,49.93
2022-08-14T01:35:21.298Z,50.02
2022-08-14T01:36:22.816Z,50.23
2022-08-14T01:36:54.574Z,50.23
2022-08-14T01:37:56.969Z,50.23
2022-08-14T01:38:54.584Z,50.23
2022-08-14T01:39:54.646Z,50.43
2022-08-14T01:40:54.525Z,50.43
2022-08-14T01:41:54.484Z,50.53
2022-08-14T01:42:54.518Z,50.83
2022-08-14T01:43:56.304Z,51.06
2022-08-14T01:44:54.596Z,51.36
2022-08-14T01:45:57.710Z,51.46
2022-08-14T01:46:58.035Z,51.79
2022-08-14T01:48:03.228Z,51.68
2022-08-14T01:48:54.438Z,52.09
2022-08-14T01:50:01.335Z,52.42
2022-08-14T01:50:54.422Z,52.92
2022-08-14T01:51:54.362Z,53.52
2022-08-14T01:52:59.367Z,53.75
2022-08-14T01:53:55.837Z,54.25
2022-08-14T01:54:58.089Z,54.36
2022-08-14T01:55:54.306Z,54.38
2022-08-14T01:56:55.626Z,54.79
2022-08-14T01:58:01.406Z,55.19
2022-08-14T01:58:57.986Z,55.01
2022-08-14T01:59:54.246Z,55.62
2022-08-14T02:00:55.528Z,55.82
2022-08-14T02:01:58.552Z,56.23
2022-08-14T02:02:54.264Z,56.32
2022-08-14T02:03:57.259Z,55.94
2022-08-14T02:04:56.871Z,56.76
2022-08-14T02:05:54.197Z,56.76
2022-08-14T02:06:54.237Z,56.85
2022-08-14T02:08:01.156Z,56.88
2022-08-14T02:08:55.249Z,57.29
2022-08-14T02:09:55.688Z,57.59
2022-08-14T02:10:54.119Z,57.49
2022-08-14T02:11:54.430Z,58.12
2022-08-14T02:12:57.066Z,58.02
2022-08-14T02:13:54.068Z,58.33
2022-08-14T02:15:00.357Z,58.23
2022-08-14T02:15:54.056Z,58.23
2022-08-14T02:16:54.228Z,58.73
2022-08-14T02:17:54.039Z,58.76
2022-08-14T02:18:54.018Z,58.76
2022-08-14T02:19:54.007Z,58.76
2022-08-14T02:20:54.039Z,58.65
2022-08-14T02:21:53.997Z,58.43
2022-08-14T02:22:54.943Z,57.92
2022-08-14T02:23:53.958Z,58.02
2022-08-14T02:24:53.931Z,57.92
2022-08-14T02:25:54.399Z,57.72
2022-08-14T02:26:58.470Z,57.72
2022-08-14T02:28:57.204Z,57.52
2022-08-14T02:29:03.759Z,57.72
2022-08-14T02:29:59.211Z,57.52
2022-08-14T02:30:53.881Z,57.52
2022-08-14T02:31:53.844Z,57.62
2022-08-14T02:32:53.873Z,57.92
2022-08-14T02:33:53.834Z,57.82
2022-08-14T02:34:53.803Z,57.62
2022-08-14T02:36:05.033Z,57.82
2022-08-14T02:37:05.096Z,57.82
2022-08-14T02:37:53.787Z,57.82
2022-08-14T02:38:53.785Z,58.12
2022-08-14T02:39:53.776Z,58.23
2022-08-14T02:40:53.719Z,58.43
2022-08-14T02:41:58.177Z,58.33
2022-08-14T02:42:54.907Z,58.43
2022-08-14T02:43:53.673Z,58.43
2022-08-14T02:44:53.730Z,58.53
2022-08-14T02:45:53.666Z,58.45
2022-08-14T02:46:53.642Z,58.65
2022-08-14T02:47:53.905Z,58.65
2022-08-14T02:49:01.809Z,58.45
2022-08-14T02:49:54.857Z,58.65
2022-08-14T02:50:53.680Z,58.76
2022-08-14T02:51:53.572Z,58.76
2022-08-14T02:52:57.193Z,58.76
2022-08-14T02:53:53.564Z,58.86
2022-08-14T02:54:53.538Z,58.96
2022-08-14T02:55:53.558Z,58.86
2022-08-14T02:57:15.262Z,58.96
2022-08-14T02:57:57.837Z,59.06
2022-08-14T02:58:55.787Z,59.16
2022-08-14T02:59:53.471Z,59.06
2022-08-14T03:00:53.517Z,59.27
2022-08-14T03:01:54.980Z,59.47
2022-08-14T03:02:59.038Z,59.47
2022-08-14T03:03:53.467Z,59.49
2022-08-14T03:04:53.415Z,59.70
2022-08-14T03:05:54.384Z,59.67
2022-08-14T03:07:06.366Z,59.67
2022-08-14T03:07:53.361Z,59.47
2022-08-14T03:08:53.399Z,59.56
2022-08-14T03:10:27.852Z,59.67
2022-08-14T03:10:53.341Z,59.56
2022-08-14T03:11:53.336Z,59.47
2022-08-14T03:12:53.340Z,59.77
2022-08-14T03:13:53.286Z,60.00
2022-08-14T03:14:53.311Z,60.10
2022-08-14T03:15:55.489Z,60.10
2022-08-14T03:16:53.254Z,60.30
2022-08-14T03:17:57.320Z,60.30
2022-08-14T03:18:53.237Z,60.20
2022-08-14T03:19:53.236Z,60.61
2022-08-14T03:20:53.239Z,60.81
2022-08-14T03:21:53.194Z,60.61
2022-08-14T03:22:53.170Z,60.71
2022-08-14T03:23:53.149Z,60.61
2022-08-14T03:24:53.213Z,60.50
2022-08-14T03:25:53.124Z,61.01
2022-08-14T03:26:57.460Z,61.41
2022-08-14T03:27:58.560Z,61.35
2022-08-14T03:28:53.104Z,61.55
2022-08-14T03:29:53.069Z,61.75
2022-08-14T03:30:54.795Z,62.15
2022-08-14T03:31:53.047Z,62.15
2022-08-14T03:32:53.086Z,62.05
2022-08-14T03:33:54.300Z,62.15
2022-08-14T03:34:55.740Z,62.26
2022-08-14T03:36:05.047Z,62.26
2022-08-14T03:39:09.864Z,62.26
2022-08-14T03:39:22.993Z,62.46
2022-08-14T03:39:29.331Z,62.56
2022-08-14T03:40:29.264Z,62.35
2022-08-14T03:41:33.159Z,62.66
2022-08-14T03:42:35.997Z,62.86
2022-08-14T03:43:32.599Z,63.07
2022-08-14T03:45:19.574Z,62.96
2022-08-14T03:45:47.993Z,63.07
2022-08-14T03:46:53.033Z,63.17
2022-08-14T03:47:34.238Z,63.27
2022-08-14T03:48:31.177Z,63.37
2022-08-14T03:49:29.991Z,63.47
2022-08-14T03:50:31.296Z,63.57
2022-08-14T03:51:29.140Z,63.67
2022-08-14T03:52:39.331Z,63.78
2022-08-14T03:53:31.424Z,63.78
2022-08-14T03:54:29.052Z,63.67
2022-08-14T03:55:30.427Z,63.98
2022-08-14T03:56:29.042Z,64.11
2022-08-14T03:57:29.038Z,64.21
2022-08-14T03:58:36.250Z,64.21
2022-08-14T03:59:28.973Z,64.41
2022-08-14T04:00:45.163Z,64.92
2022-08-14T04:01:29.229Z,64.92
2022-08-14T04:02:32.958Z,65.02
2022-08-14T04:03:29.097Z,65.15
2022-08-14T04:04:28.897Z,65.56
2022-08-14T04:05:28.898Z,65.76
2022-08-14T04:06:31.601Z,65.96
2022-08-14T04:07:28.874Z,65.86
2022-08-14T04:08:31.167Z,66.09
2022-08-14T04:09:28.851Z,66.40
2022-08-14T04:10:31.886Z,66.19
2022-08-14T04:11:28.816Z,66.91
2022-08-14T04:12:28.787Z,66.60
2022-08-14T04:13:31.499Z,66.80
2022-08-14T04:14:28.807Z,66.70
2022-08-14T04:15:28.773Z,66.91
2022-08-14T04:16:31.655Z,67.31
2022-08-14T04:17:28.737Z,67.31
2022-08-14T04:18:28.718Z,67.00
2022-08-14T04:19:33.061Z,66.91
2022-08-14T04:20:28.795Z,67.38
2022-08-14T04:21:28.747Z,66.88
2022-08-14T04:22:28.668Z,66.97
2022-08-14T04:23:32.922Z,66.77
2022-08-14T04:24:28.648Z,66.24
2022-08-14T04:25:28.638Z,66.13
2022-08-14T04:26:42.154Z,66.24
2022-08-14T04:27:28.609Z,66.50
2022-08-14T04:29:02.161Z,66.20
2022-08-14T04:29:28.611Z,66.10
2022-08-14T04:30:32.897Z,65.80
2022-08-14T04:32:57.639Z,65.50
2022-08-14T04:33:14.565Z,65.47
2022-08-14T04:33:28.538Z,65.06
2022-08-14T04:34:28.507Z,65.06
2022-08-14T04:35:55.110Z,64.96
2022-08-14T04:36:28.481Z,64.76
2022-08-14T04:37:28.484Z,64.76
2022-08-14T04:38:36.944Z,64.96
2022-08-14T04:39:28.482Z,64.65
2022-08-14T04:40:28.440Z,64.45
2022-08-14T04:41:30.328Z,64.76
2022-08-14T04:42:28.392Z,64.86
2022-08-14T04:43:38.977Z,64.76
2022-08-14T04:44:36.915Z,64.86
2022-08-14T04:45:29.691Z,64.96
2022-08-14T04:46:55.104Z,65.16
2022-08-14T04:47:30.989Z,65.26
2022-08-14T04:48:39.141Z,65.26
2022-08-14T04:49:28.354Z,65.36
2022-08-14T04:50:33.775Z,65.47
2022-08-14T04:51:28.307Z,65.47
2022-08-14T04:52:28.298Z,65.26
2022-08-14T04:53:34.911Z,65.47
2022-08-14T04:54:28.259Z,65.77
2022-08-14T04:55:28.259Z,65.56
2022-08-14T04:56:31.228Z,65.56
2022-08-14T04:57:28.216Z,65.97
2022-08-14T04:58:32.293Z,65.87
2022-08-14T04:59:28.200Z,65.97
2022-08-14T05:00:28.180Z,66.07
2022-08-14T05:01:28.208Z,66.17
2022-08-14T05:02:28.309Z,66.14
2022-08-14T05:03:28.197Z,66.44
2022-08-14T05:04:28.111Z,66.55
2022-08-14T05:05:28.143Z,66.75
2022-08-14T05:06:38.186Z,67.05
2022-08-14T05:07:46.883Z,66.61
2022-08-14T05:08:32.251Z,65.88
2022-08-14T05:09:28.827Z,64.73
2022-08-14T05:10:31.997Z,63.36
2022-08-14T05:11:28.230Z,61.99
2022-08-14T05:13:10.683Z,61.16
2022-08-14T05:13:30.219Z,60.32
2022-08-14T05:14:45.583Z,59.48
2022-08-14T05:15:27.969Z,58.65
2022-08-14T05:16:27.964Z,58.55
2022-08-14T05:17:43.365Z,58.86
2022-08-14T05:19:16.666Z,59.19
2022-08-14T05:19:29.554Z,59.28
2022-08-14T05:21:56.830Z,59.39
2022-08-14T05:22:16.601Z,59.69
2022-08-14T05:22:27.967Z,59.39
2022-08-14T05:23:27.859Z,59.06
2022-08-14T05:24:27.898Z,58.55
2022-08-14T05:25:30.667Z,59.06
2022-08-14T05:26:27.876Z,58.95
2022-08-14T05:27:31.083Z,58.53
2022-08-14T05:28:27.821Z,58.00
2022-08-14T05:29:27.778Z,56.96
2022-08-14T05:30:27.784Z,56.84
2022-08-14T05:31:39.594Z,56.86
2022-08-14T05:32:28.375Z,57.26
2022-08-14T05:33:27.730Z,57.57
2022-08-14T05:34:28.866Z,57.77
2022-08-14T05:35:27.706Z,58.00
2022-08-14T05:36:27.700Z,58.40
2022-08-14T05:37:28.109Z,58.80
2022-08-14T05:38:31.059Z,59.13
2022-08-14T05:39:27.661Z,59.33
2022-08-14T05:40:27.659Z,59.10
2022-08-14T05:41:33.664Z,58.90
2022-08-14T05:42:32.003Z,58.80
2022-08-14T05:43:40.603Z,58.80
2022-08-14T05:44:30.211Z,59.33
2022-08-14T05:45:27.595Z,59.83
2022-08-14T05:46:27.595Z,60.13
2022-08-14T05:47:28.936Z,60.24
2022-08-14T05:48:33.648Z,60.13
2022-08-14T05:49:33.134Z,60.11
2022-08-14T05:50:29.236Z,59.38
2022-08-14T05:51:27.503Z,58.97
2022-08-14T05:52:39.097Z,58.94
2022-08-14T05:53:27.530Z,58.62
2022-08-14T05:54:27.543Z,58.01
2022-08-14T05:55:27.446Z,57.68
2022-08-14T05:56:29.076Z,57.48
2022-08-14T05:57:27.424Z,57.26
2022-08-14T05:58:33.915Z,57.26
2022-08-14T05:59:36.539Z,57.06
2022-08-14T06:00:29.954Z,57.06
2022-08-14T06:01:31.318Z,57.06
2022-08-14T06:02:27.444Z,56.96
2022-08-14T06:03:27.340Z,56.73
2022-08-14T06:04:27.335Z,56.73
2022-08-14T06:05:29.075Z,56.73
2022-08-14T06:06:27.326Z,56.52
2022-08-14T06:07:27.280Z,56.93
2022-08-14T06:08:36.646Z,57.23
2022-08-14T06:09:27.267Z,56.90
2022-08-14T06:10:28.127Z,56.40
2022-08-14T06:11:30.846Z,56.40
2022-08-14T06:12:31.502Z,56.70
2022-08-14T06:13:31.602Z,56.17
2022-08-14T06:14:27.284Z,56.07
2022-08-14T06:15:30.612Z,55.74
2022-08-14T06:16:27.196Z,55.35
2022-08-14T06:17:27.184Z,55.32
2022-08-14T06:18:27.158Z,55.55
2022-08-14T06:19:27.135Z,55.65
2022-08-14T06:20:28.187Z,55.55
2022-08-14T06:21:27.106Z,55.32
2022-08-14T06:22:27.105Z,55.12
2022-08-14T06:23:27.354Z,54.79
2022-08-14T06:24:27.082Z,54.37
2022-08-14T06:25:27.065Z,55.19
2022-08-14T06:26:30.013Z,55.52
2022-08-14T06:27:27.018Z,55.59
2022-08-14T06:28:28.320Z,55.29
2022-08-14T06:29:27.033Z,54.99
2022-08-14T06:30:30.442Z,55.07
2022-08-14T06:31:26.976Z,54.67
2022-08-14T06:32:37.574Z,54.86
2022-08-14T06:33:45.719Z,55.07
2022-08-14T06:35:12.930Z,54.77
2022-08-14T06:35:26.986Z,54.86
2022-08-14T06:36:26.961Z,54.64
2022-08-14T06:37:26.912Z,54.77
2022-08-14T06:38:26.934Z,54.97
2022-08-14T06:39:36.384Z,54.84
2022-08-14T06:40:28.462Z,54.84
2022-08-14T06:41:52.748Z,55.04
2022-08-14T06:42:32.595Z,54.74
2022-08-14T06:43:31.878Z,54.84
2022-08-14T06:44:30.911Z,55.27
2022-08-14T06:45:26.977Z,55.47
2022-08-14T06:46:34.329Z,55.87
2022-08-14T06:47:26.814Z,56.16
2022-08-14T06:48:26.761Z,56.39
2022-08-14T06:49:26.730Z,57.12
2022-08-14T06:50:28.036Z,57.22
2022-08-14T06:51:39.056Z,57.29
2022-08-14T06:52:26.729Z,57.50
2022-08-14T06:53:27.748Z,57.50
2022-08-14T06:54:31.056Z,57.19
2022-08-14T06:55:28.278Z,56.79
2022-08-14T06:56:26.760Z,56.57
2022-08-14T06:57:26.632Z,55.74
2022-08-14T06:58:29.283Z,54.69
2022-08-14T06:59:27.060Z,53.96
2022-08-14T07:00:30.605Z,53.77
2022-08-14T07:01:27.740Z,53.56
2022-08-14T07:02:29.113Z,53.36
2022-08-14T07:03:26.558Z,53.77
2022-08-14T07:04:26.575Z,54.16
2022-08-14T07:05:26.678Z,53.86
2022-08-14T07:06:46.435Z,53.86
2022-08-14T07:07:28.571Z,54.06
2022-08-14T07:08:26.592Z,54.06
2022-08-14T07:09:27.913Z,53.96
2022-08-14T07:10:26.478Z,53.77
2022-08-14T07:11:26.508Z,53.74
2022-08-14T07:12:54.992Z,52.97
2022-08-14T07:13:26.481Z,53.17
2022-08-14T07:14:26.508Z,53.56
2022-08-14T07:15:26.453Z,53.79
2022-08-14T07:16:27.414Z,53.99
2022-08-14T07:17:26.381Z,54.29
2022-08-14T07:18:26.514Z,53.79
2022-08-14T07:19:26.363Z,53.59
2022-08-14T07:20:30.918Z,53.29
2022-08-14T07:21:26.374Z,52.67
2022-08-14T07:22:32.874Z,52.55
2022-08-14T07:23:26.310Z,52.25
2022-08-14T07:24:31.267Z,52.44
2022-08-14T07:25:32.181Z,52.44
2022-08-14T07:26:26.310Z,52.57
2022-08-14T07:27:26.345Z,52.37
2022-08-14T07:28:26.254Z,52.04
2022-08-14T07:29:28.736Z,51.52
2022-08-14T07:30:33.746Z,51.52
2022-08-14T07:31:26.212Z,50.90
2022-08-14T07:32:33.960Z,50.57
2022-08-14T07:33:29.307Z,50.80
2022-08-14T07:34:36.646Z,50.80
2022-08-14T07:35:26.191Z,50.68
2022-08-14T07:36:27.323Z,50.27
2022-08-14T07:37:26.111Z,49.85
2022-08-14T07:38:26.172Z,49.95
2022-08-14T07:39:27.491Z,49.85
2022-08-14T07:40:27.797Z,49.33
2022-08-14T07:41:33.650Z,48.91
2022-08-14T07:42:26.100Z,48.61
2022-08-14T07:43:26.043Z,48.41
2022-08-14T07:44:32.162Z,47.70
2022-08-14T07:45:26.038Z,47.57
2022-08-14T07:46:28.524Z,47.38
2022-08-14T07:47:26.006Z,47.28
2022-08-14T07:48:25.982Z,47.50
2022-08-14T07:49:25.953Z,47.28
2022-08-14T07:50:25.989Z,47.08
2022-08-14T07:51:34.036Z,46.76
2022-08-14T07:52:30.887Z,46.46
2022-08-14T07:53:25.947Z,46.53
2022-08-14T07:54:29.993Z,46.34
2022-08-14T07:55:25.894Z,46.34
2022-08-14T07:56:47.114Z,45.84
2022-08-14T07:57:25.859Z,45.62
2022-08-14T07:58:33.992Z,45.62
2022-08-14T07:59:41.293Z,45.30
2022-08-14T08:00:30.980Z,44.31
2022-08-14T08:01:25.808Z,44.01
2022-08-14T08:02:25.839Z,44.01
2022-08-14T08:03:25.879Z,44.21
2022-08-14T08:04:27.161Z,44.09
2022-08-14T08:05:25.758Z,43.89
2022-08-14T08:06:25.785Z,43.48
2022-08-14T08:07:30.055Z,43.38
2022-08-14T08:08:27.035Z,42.78
2022-08-14T08:09:29.878Z,42.88
2022-08-14T08:10:46.030Z,43.08
2022-08-14T08:11:25.698Z,43.87
2022-08-14T08:12:30.077Z,42.57
2022-08-14T08:13:25.658Z,41.97
2022-08-14T08:14:25.684Z,41.87
2022-08-14T08:15:25.642Z,42.14
2022-08-14T08:16:25.675Z,42.14
2022-08-14T08:17:25.785Z,42.03
2022-08-14T08:18:27.444Z,41.63
2022-08-14T08:19:25.611Z,41.46
2022-08-14T08:20:27.256Z,41.16
2022-08-14T08:21:27.074Z,41.14
2022-08-14T08:22:27.209Z,39.16
2022-08-14T08:23:34.572Z,38.96
2022-08-14T08:24:25.528Z,38.86
2022-08-14T08:25:25.508Z,37.87
2022-08-14T08:26:25.703Z,37.68
2022-08-14T08:27:25.500Z,38.17
2022-08-14T08:28:26.404Z,38.19
2022-08-14T08:29:29.152Z,38.68
2022-08-14T08:30:25.479Z,38.67
2022-08-14T08:31:32.881Z,38.57
2022-08-14T08:32:29.854Z,37.60
2022-08-14T08:33:25.398Z,37.00
2022-08-14T08:34:25.409Z,36.98
2022-08-14T08:35:25.370Z,36.79
2022-08-14T08:36:25.376Z,36.29
2022-08-14T08:37:25.407Z,36.18
2022-08-14T08:39:18.537Z,36.57
2022-08-14T08:39:42.243Z,36.18
2022-08-14T08:40:30.959Z,36.37
2022-08-14T08:41:25.304Z,36.47
2022-08-14T08:42:31.666Z,35.76
2022-08-14T08:43:25.310Z,35.86
2022-08-14T08:44:32.287Z,35.27
2022-08-14T08:45:25.248Z,34.95
2022-08-14T08:46:25.246Z,34.95
2022-08-14T08:47:25.240Z,35.35
2022-08-14T08:48:31.478Z,35.33
2022-08-14T08:49:25.203Z,34.63
2022-08-14T08:50:31.641Z,34.43
2022-08-14T08:51:25.054Z,34.63
2022-08-14T08:52:31.032Z,34.13
2022-08-14T08:53:25.149Z,33.84
2022-08-14T08:54:26.733Z,34.01
2022-08-14T08:55:25.117Z,33.62
2022-08-14T08:56:30.560Z,33.33
2022-08-14T08:57:25.184Z,33.62
2022-08-14T08:58:25.578Z,33.44
2022-08-14T08:59:30.895Z,33.94
2022-08-14T09:00:26.437Z,34.01
2022-08-14T09:01:25.108Z,34.22
2022-08-14T09:02:26.099Z,34.41
2022-08-14T09:03:25.019Z,34.00
2022-08-14T09:04:25.027Z,33.70
2022-08-14T09:05:25.018Z,33.49
2022-08-14T09:07:01.233Z,33.08
2022-08-14T09:07:24.968Z,32.39
2022-08-14T09:08:30.779Z,32.49
2022-08-14T09:09:24.945Z,32.29
2022-08-14T09:10:27.174Z,31.80
2022-08-14T09:11:24.916Z,31.90
2022-08-14T09:12:24.917Z,32.29
2022-08-14T09:13:25.101Z,31.90
2022-08-14T09:14:24.929Z,31.62
2022-08-14T09:15:24.872Z,32.03
2022-08-14T09:16:25.222Z,32.34
2022-08-14T09:17:25.657Z,32.75
2022-08-14T09:18:24.843Z,32.16
2022-08-14T09:19:24.811Z,32.18
2022-08-14T09:20:26.325Z,32.35
2022-08-14T09:21:31.228Z,32.54
2022-08-14T09:22:35.580Z,31.54
2022-08-14T09:23:35.124Z,30.73
2022-08-14T09:24:37.383Z,29.94
2022-08-14T09:26:01.222Z,29.93
2022-08-14T09:26:24.792Z,29.93
2022-08-14T09:27:24.712Z,29.92
2022-08-14T09:28:24.719Z,29.71
2022-08-14T09:29:24.749Z,29.61
2022-08-14T09:30:33.051Z,29.71
2022-08-14T09:31:24.688Z,29.71
2022-08-14T09:32:58.034Z,30.21
2022-08-14T09:33:24.654Z,30.00
2022-08-14T09:34:27.247Z,29.90
2022-08-14T09:35:24.646Z,30.19
2022-08-14T09:36:24.598Z,29.90
2022-08-14T09:37:24.611Z,30.30
2022-08-14T09:38:26.119Z,29.80
2022-08-14T09:39:24.633Z,29.52
2022-08-14T09:40:24.604Z,29.92
2022-08-14T09:41:24.599Z,29.82
2022-08-14T09:42:33.400Z,30.02
2022-08-14T09:43:24.527Z,30.21
2022-08-14T09:44:24.570Z,30.11
2022-08-14T09:45:24.495Z,29.93
2022-08-14T09:46:25.750Z,30.72
2022-08-14T09:47:24.495Z,30.52
2022-08-14T09:48:29.924Z,30.62
2022-08-14T09:49:24.453Z,30.62
2022-08-14T09:50:26.145Z,30.90
2022-08-14T09:51:25.367Z,30.90
2022-08-14T09:52:33.935Z,30.60
2022-08-14T09:53:24.414Z,30.40
2022-08-14T09:54:24.385Z,30.19
2022-08-14T09:55:24.374Z,30.49
2022-08-14T09:56:31.140Z,29.77
2022-08-14T09:57:24.356Z,29.76
2022-08-14T09:58:24.776Z,29.66
2022-08-14T09:59:24.393Z,29.57
2022-08-14T10:00:30.197Z,29.27
2022-08-14T10:01:24.849Z,29.37
2022-08-14T10:02:24.434Z,28.78
2022-08-14T10:03:24.275Z,28.68
2022-08-14T10:04:33.100Z,28.99
2022-08-14T10:05:24.286Z,28.88
2022-08-14T10:06:24.222Z,28.99
2022-08-14T10:07:24.226Z,29.48
2022-08-14T10:08:26.149Z,29.38
2022-08-14T10:09:24.826Z,28.99
2022-08-14T10:10:24.213Z,29.58
2022-08-14T10:11:24.167Z,29.48
2022-08-14T10:12:29.105Z,29.68
2022-08-14T10:13:24.157Z,29.77
2022-08-14T10:14:34.765Z,29.09
2022-08-14T10:15:24.127Z,29.19
2022-08-14T10:16:27.281Z,29.76
2022-08-14T10:17:24.107Z,29.97
2022-08-14T10:18:24.073Z,30.05
2022-08-14T10:19:24.127Z,29.17
2022-08-14T10:20:40.255Z,28.11
2022-08-14T10:21:24.084Z,27.80
2022-08-14T10:23:11.802Z,27.50
2022-08-14T10:23:24.600Z,27.20
2022-08-14T10:24:24.018Z,27.51
2022-08-14T10:25:24.004Z,27.81
2022-08-14T10:26:28.460Z,28.02
2022-08-14T10:27:23.995Z,27.81
2022-08-14T10:29:03.928Z,28.39
2022-08-14T10:29:25.203Z,27.78
2022-08-14T10:30:26.248Z,27.37
2022-08-14T10:31:25.754Z,27.08
2022-08-14T10:32:28.476Z,27.18
2022-08-14T10:33:23.936Z,26.98
2022-08-14T10:34:29.173Z,26.97
2022-08-14T10:35:23.893Z,26.78
2022-08-14T10:36:34.460Z,26.68
2022-08-14T10:37:23.873Z,26.69
2022-08-14T10:38:23.861Z,26.78
2022-08-14T10:39:23.887Z,26.87
2022-08-14T10:40:36.922Z,26.68
2022-08-14T10:41:23.810Z,26.78
2022-08-14T10:42:23.809Z,26.78
2022-08-14T10:43:24.071Z,26.46
2022-08-14T10:44:23.809Z,26.26
2022-08-14T10:45:24.350Z,26.35
2022-08-14T10:47:37.359Z,25.96
2022-08-14T10:48:10.309Z,26.06
2022-08-14T10:48:44.926Z,25.68
2022-08-14T10:49:23.749Z,26.09
2022-08-14T10:50:23.713Z,26.38
2022-08-14T10:51:23.699Z,26.18
2022-08-14T10:52:23.683Z,26.27
2022-08-14T10:53:23.660Z,26.07
2022-08-14T10:54:36.071Z,25.98
2022-08-14T10:55:23.680Z,26.28
2022-08-14T10:56:34.063Z,26.59
2022-08-14T10:57:23.620Z,26.59
2022-08-14T10:58:23.597Z,26.79
2022-08-14T10:59:23.594Z,26.89
2022-08-14T11:00:35.033Z,26.69
2022-08-14T11:01:23.570Z,26.59
2022-08-14T11:02:44.717Z,26.68
2022-08-14T11:03:35.765Z,26.46
2022-08-14T11:04:26.067Z,25.78
2022-08-14T11:05:23.533Z,25.29
2022-08-14T11:06:24.752Z,25.59
2022-08-14T11:07:23.481Z,25.78
2022-08-14T11:08:23.494Z,25.29
2022-08-14T11:09:23.478Z,25.38
2022-08-14T11:10:23.461Z,25.28
2022-08-14T11:11:23.440Z,24.79
2022-08-14T11:12:34.188Z,24.81
2022-08-14T11:13:24.033Z,25.12
2022-08-14T11:14:26.370Z,25.51
2022-08-14T11:15:23.397Z,25.23
2022-08-14T11:16:23.364Z,25.23
2022-08-14T11:17:23.365Z,25.03
2022-08-14T11:18:36.044Z,25.42
2022-08-14T11:19:25.006Z,25.40
2022-08-14T11:20:23.987Z,25.59
2022-08-14T11:21:23.486Z,24.90
2022-08-14T11:22:57.037Z,25.39
2022-08-14T11:23:23.295Z,25.39
2022-08-14T11:24:54.605Z,25.09
2022-08-14T11:25:23.278Z,24.59
2022-08-14T11:26:23.280Z,25.18
2022-08-14T11:27:28.376Z,24.69
2022-08-14T11:28:47.333Z,24.69
2022-08-14T11:29:24.590Z,25.20
2022-08-14T11:30:51.550Z,24.88
2022-08-14T11:31:23.309Z,24.77
2022-08-14T11:32:23.209Z,24.77
2022-08-14T11:33:23.168Z,24.58
2022-08-14T11:34:29.928Z,24.09
2022-08-14T11:35:23.152Z,23.99
2022-08-14T11:36:23.118Z,23.90
2022-08-14T11:37:35.293Z,23.71
2022-08-14T11:38:23.173Z,23.71
2022-08-14T11:39:34.353Z,23.70
2022-08-14T11:40:28.573Z,23.60
2022-08-14T11:41:23.161Z,23.31
2022-08-14T11:42:58.445Z,23.39
2022-08-14T11:43:29.133Z,23.10
2022-08-14T11:44:45.477Z,23.50
2022-08-14T11:45:23.428Z,23.81
2022-08-14T11:46:29.932Z,24.11
2022-08-14T11:47:23.004Z,23.92
2022-08-14T11:49:01.842Z,24.02
2022-08-14T11:49:22.983Z,23.92
2022-08-14T11:50:34.072Z,23.92
2022-08-14T11:51:24.023Z,23.92
2022-08-14T11:52:22.983Z,24.11
2022-08-14T11:53:22.922Z,24.13
2022-08-14T11:54:34.523Z,24.71
2022-08-14T11:55:25.648Z,24.80
2022-08-14T11:56:25.224Z,24.31
2022-08-14T11:57:23.026Z,24.11
2022-08-14T11:58:24.141Z,24.52
2022-08-14T11:59:26.291Z,24.51
2022-08-14T12:00:22.835Z,24.21
2022-08-14T12:01:22.840Z,24.11
2022-08-14T12:03:01.862Z,24.20
2022-08-14T12:03:37.194Z,24.30
2022-08-14T12:04:32.667Z,23.81
2022-08-14T12:05:22.794Z,24.10
2022-08-14T12:06:29.310Z,24.20
2022-08-14T12:07:22.760Z,23.61
2022-08-14T12:08:24.677Z,23.50
2022-08-14T12:09:22.739Z,23.50
2022-08-14T12:10:27.112Z,23.02
2022-08-14T12:11:22.724Z,22.91
2022-08-14T12:12:47.322Z,23.02
2022-08-14T12:13:22.690Z,23.11
2022-08-14T12:14:30.228Z,23.41
2022-08-14T12:15:22.671Z,23.69
2022-08-14T12:16:22.918Z,22.70
2022-08-14T12:17:24.235Z,22.41
2022-08-14T12:18:22.622Z,22.02
2022-08-14T12:19:22.612Z,22.02
2022-08-14T12:20:29.836Z,22.51
2022-08-14T12:21:22.600Z,22.91
2022-08-14T12:22:30.284Z,22.81
2022-08-14T12:23:22.563Z,23.10
2022-08-14T12:24:36.068Z,22.91
2022-08-14T12:25:24.937Z,22.81
2022-08-14T12:26:39.225Z,22.31
2022-08-14T12:27:24.851Z,22.02
2022-08-14T12:28:27.193Z,22.31
2022-08-14T12:29:22.495Z,22.02
2022-08-14T12:30:22.494Z,22.39
2022-08-14T12:31:22.482Z,21.81
2022-08-14T12:32:22.464Z,21.80
2022-08-14T12:33:23.947Z,21.80
2022-08-14T12:34:24.189Z,21.50
2022-08-14T12:35:22.413Z,20.72
2022-08-14T12:36:22.394Z,21.22
2022-08-14T12:37:22.384Z,21.32
2022-08-14T12:38:22.397Z,20.62
2022-08-14T12:39:22.433Z,20.71
2022-08-14T12:40:22.336Z,20.12
2022-08-14T12:41:24.232Z,20.61
2022-08-14T12:42:27.185Z,20.32
2022-08-14T12:43:22.318Z,20.81
2022-08-14T12:44:22.317Z,19.83
2022-08-14T12:45:22.319Z,20.12
2022-08-14T12:46:27.295Z,19.92
2022-08-14T12:47:22.278Z,19.71
2022-08-14T12:48:31.636Z,19.82
2022-08-14T12:49:22.245Z,20.12
2022-08-14T12:50:22.238Z,19.91
2022-08-14T12:51:25.206Z,19.60
2022-08-14T12:52:36.021Z,19.12
2022-08-14T12:53:28.695Z,19.62
2022-08-14T12:54:27.646Z,18.93